sensor_id;sensor_type;location;lat;lon;timestamp;pressure;altitude;pressure_sealevel;temperature;humidity
60874;BME280;46715;40.642;-7.920;2023-04-01T00:00:00;97099.91;;;10.60;90.36
60874;BME280;46715;40.642;-7.920;2023-04-01T00:02:01;97093.41;;;10.63;90.75
60874;BME280;46715;40.642;-7.920;2023-04-01T00:04:02;97103.91;;;10.68;90.88
60874;BME280;46715;40.642;-7.920;2023-04-01T00:06:02;97105.81;;;10.78;90.53
60874;BME280;46715;40.642;-7.920;2023-04-01T00:08:04;97102.69;;;10.81;90.58
60874;BME280;46715;40.642;-7.920;2023-04-01T00:10:07;97109.56;;;10.87;90.46
60874;BME280;46715;40.642;-7.920;2023-04-01T00:12:08;97110.84;;;10.84;90.53
60874;BME280;46715;40.642;-7.920;2023-04-01T00:14:09;97120.72;;;10.82;90.61
60874;BME280;46715;40.642;-7.920;2023-04-01T00:16:11;97107.63;;;10.77;90.90
60874;BME280;46715;40.642;-7.920;2023-04-01T00:18:12;97107.88;;;10.75;90.52
60874;BME280;46715;40.642;-7.920;2023-04-01T00:20:13;97109.69;;;10.75;90.52
60874;BME280;46715;40.642;-7.920;2023-04-01T00:22:14;97109.94;;;10.73;90.45
60874;BME280;46715;40.642;-7.920;2023-04-01T00:24:16;97118.53;;;10.74;90.04
60874;BME280;46715;40.642;-7.920;2023-04-01T00:26:19;97127.13;;;10.69;90.06
60874;BME280;46715;40.642;-7.920;2023-04-01T00:28:23;97133.44;;;10.73;90.32
60874;BME280;46715;40.642;-7.920;2023-04-01T00:30:23;97135.03;;;10.80;90.33
60874;BME280;46715;40.642;-7.920;2023-04-01T00:32:25;97131.34;;;10.75;90.75
60874;BME280;46715;40.642;-7.920;2023-04-01T00:34:29;97127.50;;;10.83;90.90
60874;BME280;46715;40.642;-7.920;2023-04-01T00:36:30;97130.97;;;10.89;91.13
60874;BME280;46715;40.642;-7.920;2023-04-01T00:38:31;97117.22;;;10.99;91.22
60874;BME280;46715;40.642;-7.920;2023-04-01T00:40:43;97114.19;;;11.12;90.92
60874;BME280;46715;40.642;-7.920;2023-04-01T00:42:44;97104.38;;;11.24;90.15
60874;BME280;46715;40.642;-7.920;2023-04-01T00:44:52;97111.47;;;11.29;89.70
60874;BME280;46715;40.642;-7.920;2023-04-01T00:46:55;97118.81;;;11.37;89.95
60874;BME280;46715;40.642;-7.920;2023-04-01T00:48:56;97121.50;;;11.48;89.69
60874;BME280;46715;40.642;-7.920;2023-04-01T00:51:02;97115.28;;;11.54;90.11
60874;BME280;46715;40.642;-7.920;2023-04-01T00:53:05;97112.94;;;11.57;89.47
60874;BME280;46715;40.642;-7.920;2023-04-01T00:55:09;97114.00;;;11.62;88.82
60874;BME280;46715;40.642;-7.920;2023-04-01T00:57:15;97108.81;;;11.67;88.75
60874;BME280;46715;40.642;-7.920;2023-04-01T00:59:23;97105.19;;;11.73;88.62
60874;BME280;46715;40.642;-7.920;2023-04-01T01:01:25;97101.59;;;11.79;88.40
60874;BME280;46715;40.642;-7.920;2023-04-01T01:03:27;97096.91;;;11.86;87.94
60874;BME280;46715;40.642;-7.920;2023-04-01T01:10:38;97084.66;;;11.92;87.46
60874;BME280;46715;40.642;-7.920;2023-04-01T01:12:47;97075.03;;;11.98;87.67
60874;BME280;46715;40.642;-7.920;2023-04-01T01:20:18;97067.50;;;12.11;84.33
60874;BME280;46715;40.642;-7.920;2023-04-01T01:24:20;97068.72;;;11.93;83.84
60874;BME280;46715;40.642;-7.920;2023-04-01T01:35:44;97062.16;;;11.86;86.20
60874;BME280;46715;40.642;-7.920;2023-04-01T01:37:55;97053.03;;;11.88;86.24
60874;BME280;46715;40.642;-7.920;2023-04-01T01:40:05;97050.91;;;11.85;86.28
60874;BME280;46715;40.642;-7.920;2023-04-01T01:42:11;97071.84;;;11.90;86.55
60874;BME280;46715;40.642;-7.920;2023-04-01T01:44:16;97075.56;;;12.00;87.15
60874;BME280;46715;40.642;-7.920;2023-04-01T01:46:23;97075.09;;;12.13;87.47
60874;BME280;46715;40.642;-7.920;2023-04-01T01:48:28;97078.78;;;12.22;86.72
60874;BME280;46715;40.642;-7.920;2023-04-01T01:50:30;97076.16;;;12.17;86.50
60874;BME280;46715;40.642;-7.920;2023-04-01T01:52:31;97071.19;;;12.10;87.62
60874;BME280;46715;40.642;-7.920;2023-04-01T01:54:32;97070.66;;;12.14;87.62
60874;BME280;46715;40.642;-7.920;2023-04-01T01:56:36;97070.91;;;12.17;87.43
60874;BME280;46715;40.642;-7.920;2023-04-01T01:58:44;97066.50;;;12.23;87.68
60874;BME280;46715;40.642;-7.920;2023-04-01T02:00:53;97072.25;;;12.25;87.43
60874;BME280;46715;40.642;-7.920;2023-04-01T02:02:57;97069.66;;;12.25;87.58
60874;BME280;46715;40.642;-7.920;2023-04-01T02:04:59;97058.94;;;12.26;87.97
60874;BME280;46715;40.642;-7.920;2023-04-01T02:07:03;97053.44;;;12.28;88.19
60874;BME280;46715;40.642;-7.920;2023-04-01T02:09:07;97050.56;;;12.24;88.54
60874;BME280;46715;40.642;-7.920;2023-04-01T02:11:15;97053.41;;;12.23;89.25
60874;BME280;46715;40.642;-7.920;2023-04-01T02:13:49;97051.59;;;12.18;90.32
60874;BME280;46715;40.642;-7.920;2023-04-01T02:15:49;97044.00;;;12.17;90.40
60874;BME280;46715;40.642;-7.920;2023-04-01T02:17:51;97056.56;;;12.15;91.38
60874;BME280;46715;40.642;-7.920;2023-04-01T02:19:57;97052.63;;;12.17;91.48
60874;BME280;46715;40.642;-7.920;2023-04-01T02:22:02;97051.81;;;12.06;92.90
60874;BME280;46715;40.642;-7.920;2023-04-01T02:24:06;97055.97;;;12.07;92.53
60874;BME280;46715;40.642;-7.920;2023-04-01T02:26:10;97050.50;;;12.09;92.69
60874;BME280;46715;40.642;-7.920;2023-04-01T02:28:13;97062.28;;;12.06;93.78
60874;BME280;46715;40.642;-7.920;2023-04-01T02:30:18;97053.59;;;11.96;96.06
60874;BME280;46715;40.642;-7.920;2023-04-01T02:32:20;97039.97;;;11.93;96.51
60874;BME280;46715;40.642;-7.920;2023-04-01T02:34:22;97031.31;;;11.88;97.26
60874;BME280;46715;40.642;-7.920;2023-04-01T02:36:24;97035.22;;;11.80;98.90
60874;BME280;46715;40.642;-7.920;2023-04-01T02:38:26;97031.00;;;11.69;100.00
60874;BME280;46715;40.642;-7.920;2023-04-01T02:40:26;97029.88;;;11.54;100.00
60874;BME280;46715;40.642;-7.920;2023-04-01T02:42:27;97030.94;;;11.58;100.00
60874;BME280;46715;40.642;-7.920;2023-04-01T02:44:28;97037.78;;;11.65;100.00
60874;BME280;46715;40.642;-7.920;2023-04-01T02:46:30;97036.75;;;11.71;100.00
60874;BME280;46715;40.642;-7.920;2023-04-01T02:48:30;97043.31;;;11.79;100.00
60874;BME280;46715;40.642;-7.920;2023-04-01T02:50:31;97040.72;;;11.79;100.00
60874;BME280;46715;40.642;-7.920;2023-04-01T02:52:32;97032.31;;;11.76;100.00
60874;BME280;46715;40.642;-7.920;2023-04-01T02:54:35;97032.31;;;11.76;100.00
60874;BME280;46715;40.642;-7.920;2023-04-01T02:56:36;97037.03;;;11.74;100.00
60874;BME280;46715;40.642;-7.920;2023-04-01T02:58:37;97032.06;;;11.78;100.00
60874;BME280;46715;40.642;-7.920;2023-04-01T03:00:37;97026.06;;;11.77;100.00
60874;BME280;46715;40.642;-7.920;2023-04-01T03:02:38;97027.88;;;11.72;100.00
60874;BME280;46715;40.642;-7.920;2023-04-01T03:04:39;97034.66;;;11.73;100.00
60874;BME280;46715;40.642;-7.920;2023-04-01T03:06:44;97027.88;;;11.72;100.00
60874;BME280;46715;40.642;-7.920;2023-04-01T03:08:45;97019.75;;;11.68;100.00
60874;BME280;46715;40.642;-7.920;2023-04-01T03:10:46;97027.50;;;11.53;100.00
60874;BME280;46715;40.642;-7.920;2023-04-01T03:12:46;97021.00;;;11.55;100.00
60874;BME280;46715;40.642;-7.920;2023-04-01T03:14:48;97018.66;;;11.54;100.00
60874;BME280;46715;40.642;-7.920;2023-04-01T03:16:49;97019.94;;;11.51;100.00
60874;BME280;46715;40.642;-7.920;2023-04-01T03:18:50;97024.13;;;11.57;100.00
60874;BME280;46715;40.642;-7.920;2023-04-01T03:20:53;97023.13;;;11.64;100.00
60874;BME280;46715;40.642;-7.920;2023-04-01T03:22:54;97013.72;;;11.63;100.00
60874;BME280;46715;40.642;-7.920;2023-04-01T03:24:55;97001.13;;;11.54;100.00
60874;BME280;46715;40.642;-7.920;2023-04-01T03:26:56;97004.78;;;11.53;100.00
60874;BME280;46715;40.642;-7.920;2023-04-01T03:28:57;97011.59;;;11.54;100.00
60874;BME280;46715;40.642;-7.920;2023-04-01T03:31:00;97008.97;;;11.54;100.00
60874;BME280;46715;40.642;-7.920;2023-04-01T03:33:01;97000.09;;;11.55;100.00
60874;BME280;46715;40.642;-7.920;2023-04-01T03:35:05;97000.63;;;11.57;100.00
60874;BME280;46715;40.642;-7.920;2023-04-01T03:37:07;97007.13;;;11.55;100.00
60874;BME280;46715;40.642;-7.920;2023-04-01T03:39:08;96998.03;;;11.63;100.00
60874;BME280;46715;40.642;-7.920;2023-04-01T03:41:16;96999.38;;;11.65;100.00
60874;BME280;46715;40.642;-7.920;2023-04-01T03:43:19;97009.53;;;11.62;100.00
60874;BME280;46715;40.642;-7.920;2023-04-01T03:45:20;97007.19;;;11.65;100.00
60874;BME280;46715;40.642;-7.920;2023-04-01T03:47:21;96996.25;;;11.73;100.00
60874;BME280;46715;40.642;-7.920;2023-04-01T03:49:22;96999.38;;;11.75;100.00
60874;BME280;46715;40.642;-7.920;2023-04-01T03:51:23;96988.44;;;11.79;100.00
60874;BME280;46715;40.642;-7.920;2023-04-01T03:53:24;96985.56;;;11.75;100.00
60874;BME280;46715;40.642;-7.920;2023-04-01T03:55:30;96986.84;;;11.72;100.00
60874;BME280;46715;40.642;-7.920;2023-04-01T03:57:32;96970.91;;;11.74;100.00
60874;BME280;46715;40.642;-7.920;2023-04-01T03:59:40;96980.63;;;11.79;100.00
60874;BME280;46715;40.642;-7.920;2023-04-01T04:01:41;96974.03;;;11.71;100.00
60874;BME280;46715;40.642;-7.920;2023-04-01T04:03:42;96975.06;;;11.70;100.00
60874;BME280;46715;40.642;-7.920;2023-04-01T04:05:47;96969.66;;;11.92;100.00
60874;BME280;46715;40.642;-7.920;2023-04-01T04:07:54;96979.13;;;11.98;100.00
60874;BME280;46715;40.642;-7.920;2023-04-01T04:09:55;96970.00;;;12.01;100.00
60874;BME280;46715;40.642;-7.920;2023-04-01T04:11:56;96967.38;;;12.06;100.00
60874;BME280;46715;40.642;-7.920;2023-04-01T04:13:57;96963.47;;;12.08;100.00
60874;BME280;46715;40.642;-7.920;2023-04-01T04:15:58;96965.53;;;12.11;100.00
60874;BME280;46715;40.642;-7.920;2023-04-01T04:17:59;96971.59;;;12.12;100.00
60874;BME280;46715;40.642;-7.920;2023-04-01T04:20:01;96965.53;;;12.11;100.00
60874;BME280;46715;40.642;-7.920;2023-04-01T04:22:02;96967.41;;;12.16;100.00
60874;BME280;46715;40.642;-7.920;2023-04-01T04:24:03;96974.69;;;12.09;100.00
60874;BME280;46715;40.642;-7.920;2023-04-01T04:26:24;96977.59;;;12.18;100.00
60874;BME280;46715;40.642;-7.920;2023-04-01T04:28:32;96981.25;;;12.17;100.00
60874;BME280;46715;40.642;-7.920;2023-04-01T04:30:33;96981.78;;;12.19;100.00
60874;BME280;46715;40.642;-7.920;2023-04-01T04:32:35;96978.91;;;12.20;100.00
60874;BME280;46715;40.642;-7.920;2023-04-01T04:34:36;96977.59;;;12.28;100.00
60874;BME280;46715;40.642;-7.920;2023-04-01T04:36:37;96973.69;;;12.25;100.00
60874;BME280;46715;40.642;-7.920;2023-04-01T04:38:38;96969.50;;;12.30;100.00
60874;BME280;46715;40.642;-7.920;2023-04-01T04:40:40;96965.31;;;12.34;100.00
60874;BME280;46715;40.642;-7.920;2023-04-01T04:42:41;96960.09;;;12.34;100.00
60874;BME280;46715;40.642;-7.920;2023-04-01T04:44:46;96945.97;;;12.35;100.00
60874;BME280;46715;40.642;-7.920;2023-04-01T04:46:47;96955.91;;;12.22;100.00
60874;BME280;46715;40.642;-7.920;2023-04-01T04:48:50;96956.66;;;12.13;100.00
60874;BME280;46715;40.642;-7.920;2023-04-01T04:50:51;96953.25;;;12.17;100.00
60874;BME280;46715;40.642;-7.920;2023-04-01T04:52:56;96947.53;;;12.15;100.00
60874;BME280;46715;40.642;-7.920;2023-04-01T04:54:57;96945.16;;;12.08;100.00
60874;BME280;46715;40.642;-7.920;2023-04-01T04:56:58;96951.19;;;12.14;100.00
60874;BME280;46715;40.642;-7.920;2023-04-01T04:59:01;96955.63;;;12.24;100.00
60874;BME280;46715;40.642;-7.920;2023-04-01T05:01:16;96958.25;;;12.29;100.00
60874;BME280;46715;40.642;-7.920;2023-04-01T05:03:17;96956.69;;;12.18;100.00
60874;BME280;46715;40.642;-7.920;2023-04-01T05:05:18;96963.72;;;12.17;100.00
60874;BME280;46715;40.642;-7.920;2023-04-01T05:07:20;96967.41;;;12.16;100.00
60874;BME280;46715;40.642;-7.920;2023-04-01T05:09:21;96955.63;;;12.14;100.00
60874;BME280;46715;40.642;-7.920;2023-04-01T05:11:22;96957.19;;;12.09;100.00
60874;BME280;46715;40.642;-7.920;2023-04-01T05:13:24;96956.94;;;12.11;100.00
60874;BME280;46715;40.642;-7.920;2023-04-01T05:15:26;96960.88;;;12.19;100.00
60874;BME280;46715;40.642;-7.920;2023-04-01T05:17:27;96971.34;;;12.19;100.00
60874;BME280;46715;40.642;-7.920;2023-04-01T05:19:27;96971.59;;;12.12;100.00
60874;BME280;46715;40.642;-7.920;2023-04-01T05:21:28;96966.84;;;12.09;100.00
60874;BME280;46715;40.642;-7.920;2023-04-01T05:23:31;96969.22;;;12.10;100.00
60874;BME280;46715;40.642;-7.920;2023-04-01T05:25:33;96977.31;;;12.09;100.00
60874;BME280;46715;40.642;-7.920;2023-04-01T05:27:35;96986.72;;;12.10;100.00
60874;BME280;46715;40.642;-7.920;2023-04-01T05:29:36;96992.50;;;12.12;100.00
60874;BME280;46715;40.642;-7.920;2023-04-01T05:31:40;96992.22;;;12.14;100.00
60874;BME280;46715;40.642;-7.920;2023-04-01T05:33:41;96994.59;;;12.20;100.00
60874;BME280;46715;40.642;-7.920;2023-04-01T05:35:42;97000.63;;;12.26;100.00
60874;BME280;46715;40.642;-7.920;2023-04-01T05:37:47;97004.56;;;12.28;100.00
60874;BME280;46715;40.642;-7.920;2023-04-01T05:39:48;96994.84;;;12.14;100.00
60874;BME280;46715;40.642;-7.920;2023-04-01T05:41:49;97000.84;;;12.14;100.00
60874;BME280;46715;40.642;-7.920;2023-04-01T05:43:50;96991.97;;;12.15;100.00
60874;BME280;46715;40.642;-7.920;2023-04-01T05:46:09;96992.75;;;12.16;100.00
60874;BME280;46715;40.642;-7.920;2023-04-01T05:48:26;96990.91;;;12.11;100.00
60874;BME280;46715;40.642;-7.920;2023-04-01T05:50:28;96997.47;;;12.14;100.00
60874;BME280;46715;40.642;-7.920;2023-04-01T05:52:29;96990.41;;;12.14;100.00
60874;BME280;46715;40.642;-7.920;2023-04-01T05:54:36;96990.13;;;12.16;100.00
60874;BME280;46715;40.642;-7.920;2023-04-01T05:56:37;96994.31;;;12.17;100.00
60874;BME280;46715;40.642;-7.920;2023-04-01T05:58:38;96990.16;;;12.21;100.00
60874;BME280;46715;40.642;-7.920;2023-04-01T06:00:39;97000.31;;;12.17;100.00
60874;BME280;46715;40.642;-7.920;2023-04-01T06:02:53;96995.09;;;12.17;100.00
60874;BME280;46715;40.642;-7.920;2023-04-01T06:05:23;96993.78;;;12.09;100.00
60874;BME280;46715;40.642;-7.920;2023-04-01T06:07:23;96997.72;;;12.12;100.00
60874;BME280;46715;40.642;-7.920;2023-04-01T06:09:29;96996.66;;;12.08;100.00
60874;BME280;46715;40.642;-7.920;2023-04-01T06:14:11;96996.66;;;12.03;100.00
60874;BME280;46715;40.642;-7.920;2023-04-01T06:30:40;97002.91;;;12.02;100.00
60874;BME280;46715;40.642;-7.920;2023-04-01T06:35:24;97010.66;;;11.86;100.00
60874;BME280;46715;40.642;-7.920;2023-04-01T06:37:41;97007.88;;;11.98;100.00
60874;BME280;46715;40.642;-7.920;2023-04-01T06:44:17;97024.63;;;12.07;100.00
60874;BME280;46715;40.642;-7.920;2023-04-01T06:47:01;97032.47;;;12.13;100.00
60874;BME280;46715;40.642;-7.920;2023-04-01T06:50:00;97033.00;;;12.20;100.00
60874;BME280;46715;40.642;-7.920;2023-04-01T06:52:26;97025.97;;;12.25;100.00
60874;BME280;46715;40.642;-7.920;2023-04-01T06:54:52;97020.50;;;12.22;100.00
60874;BME280;46715;40.642;-7.920;2023-04-01T06:57:27;97028.84;;;12.24;100.00
60874;BME280;46715;40.642;-7.920;2023-04-01T06:59:35;97026.78;;;12.26;100.00
60874;BME280;46715;40.642;-7.920;2023-04-01T07:02:04;97028.59;;;12.25;100.00
60874;BME280;46715;40.642;-7.920;2023-04-01T07:06:10;97017.09;;;12.32;100.00
60874;BME280;46715;40.642;-7.920;2023-04-01T07:08:25;97023.38;;;12.36;100.00
60874;BME280;46715;40.642;-7.920;2023-04-01T07:13:54;97019.44;;;12.28;100.00
60874;BME280;46715;40.642;-7.920;2023-04-01T07:16:12;97011.88;;;12.37;100.00
60874;BME280;46715;40.642;-7.920;2023-04-01T07:18:32;97009.53;;;12.30;100.00
60874;BME280;46715;40.642;-7.920;2023-04-01T07:20:36;97002.16;;;12.27;100.00
60874;BME280;46715;40.642;-7.920;2023-04-01T07:22:44;97001.41;;;12.32;100.00
60874;BME280;46715;40.642;-7.920;2023-04-01T07:24:56;97016.06;;;12.27;100.00
60874;BME280;46715;40.642;-7.920;2023-04-01T07:26:58;97022.34;;;12.32;100.00
60874;BME280;46715;40.642;-7.920;2023-04-01T07:29:09;97014.75;;;12.40;100.00
60874;BME280;46715;40.642;-7.920;2023-04-01T07:33:46;97015.53;;;12.46;100.00
60874;BME280;46715;40.642;-7.920;2023-04-01T07:36:09;97023.13;;;12.37;100.00
60874;BME280;46715;40.642;-7.920;2023-04-01T07:38:35;97023.41;;;12.51;100.00
60874;BME280;46715;40.642;-7.920;2023-04-01T07:40:47;97022.09;;;12.64;100.00
60874;BME280;46715;40.642;-7.920;2023-04-01T07:45:11;97017.91;;;12.84;100.00
60874;BME280;46715;40.642;-7.920;2023-04-01T07:47:37;97017.91;;;12.99;100.00
60874;BME280;46715;40.642;-7.920;2023-04-01T07:57:43;97024.97;;;13.24;100.00
60874;BME280;46715;40.642;-7.920;2023-04-01T08:00:17;97019.19;;;13.22;100.00
60874;BME280;46715;40.642;-7.920;2023-04-01T08:05:22;97026.81;;;13.03;100.00
60874;BME280;46715;40.642;-7.920;2023-04-01T08:07:43;97035.19;;;13.05;100.00
60874;BME280;46715;40.642;-7.920;2023-04-01T08:10:22;97032.81;;;13.14;100.00
60874;BME280;46715;40.642;-7.920;2023-04-01T08:13:02;97035.44;;;13.24;100.00
60874;BME280;46715;40.642;-7.920;2023-04-01T08:15:41;97031.25;;;13.28;100.00
60874;BME280;46715;40.642;-7.920;2023-04-01T08:22:41;97026.78;;;13.34;100.00
60874;BME280;46715;40.642;-7.920;2023-04-01T08:25:04;97028.59;;;13.49;100.00
60874;BME280;46715;40.642;-7.920;2023-04-01T08:27:37;97026.50;;;13.46;100.00
60874;BME280;46715;40.642;-7.920;2023-04-01T08:30:26;97021.75;;;13.53;100.00
60874;BME280;46715;40.642;-7.920;2023-04-01T08:32:17;97031.41;;;13.68;100.00
60874;BME280;46715;40.642;-7.920;2023-04-01T08:34:25;97020.59;;;13.85;100.00
60874;BME280;46715;40.642;-7.920;2023-04-01T08:36:43;97021.06;;;14.03;99.32
60874;BME280;46715;40.642;-7.920;2023-04-01T08:38:59;97020.25;;;14.07;99.18
60874;BME280;46715;40.642;-7.920;2023-04-01T08:46:02;97014.69;;;14.19;97.78
60874;BME280;46715;40.642;-7.920;2023-04-01T08:58:06;97016.03;;;14.11;99.34
60874;BME280;46715;40.642;-7.920;2023-04-01T09:07:53;97016.81;;;14.52;97.30
60874;BME280;46715;40.642;-7.920;2023-04-01T09:13:20;97005.38;;;14.37;97.33
60874;BME280;46715;40.642;-7.920;2023-04-01T09:16:09;97002.25;;;14.75;98.27
60874;BME280;46715;40.642;-7.920;2023-04-01T09:20:29;96999.94;;;15.75;90.18
60874;BME280;46715;40.642;-7.920;2023-04-01T09:25:38;96994.72;;;16.32;87.35
60874;BME280;46715;40.642;-7.920;2023-04-01T09:27:57;96999.84;;;16.05;88.59
60874;BME280;46715;40.642;-7.920;2023-04-01T09:34:57;97024.22;;;15.67;90.29
60874;BME280;46715;40.642;-7.920;2023-04-01T09:37:19;97020.47;;;15.49;91.42
60874;BME280;46715;40.642;-7.920;2023-04-01T09:39:37;97020.75;;;15.72;91.07
60874;BME280;46715;40.642;-7.920;2023-04-01T09:44:59;97018.91;;;16.34;88.87
60874;BME280;46715;40.642;-7.920;2023-04-01T09:51:39;97020.06;;;16.09;89.77
60874;BME280;46715;40.642;-7.920;2023-04-01T10:09:33;97017.28;;;15.76;91.77
60874;BME280;46715;40.642;-7.920;2023-04-01T10:23:27;97040.84;;;16.82;88.70
60874;BME280;46715;40.642;-7.920;2023-04-01T10:33:24;97037.09;;;16.88;85.50
60874;BME280;46715;40.642;-7.920;2023-04-01T10:38:18;97034.94;;;17.23;86.04
60874;BME280;46715;40.642;-7.920;2023-04-01T10:43:38;97039.38;;;16.18;87.75
60874;BME280;46715;40.642;-7.920;2023-04-01T11:27:39;97001.34;;;16.82;87.41
60874;BME280;46715;40.642;-7.920;2023-04-01T11:30:07;96993.16;;;16.83;87.61
60874;BME280;46715;40.642;-7.920;2023-04-01T11:39:59;97004.28;;;16.28;91.41
60874;BME280;46715;40.642;-7.920;2023-04-01T11:50:23;96997.50;;;16.03;93.99
60874;BME280;46715;40.642;-7.920;2023-04-01T11:52:38;96993.47;;;15.67;97.92
60874;BME280;46715;40.642;-7.920;2023-04-01T12:11:45;96972.25;;;16.92;90.22
60874;BME280;46715;40.642;-7.920;2023-04-01T12:16:11;96962.78;;;17.05;90.18
60874;BME280;46715;40.642;-7.920;2023-04-01T12:18:20;96968.75;;;17.38;87.75
60874;BME280;46715;40.642;-7.920;2023-04-01T12:20:43;96973.72;;;17.54;87.58
60874;BME280;46715;40.642;-7.920;2023-04-01T12:22:53;96977.09;;;17.82;86.58
60874;BME280;46715;40.642;-7.920;2023-04-01T12:33:15;96966.41;;;17.37;87.92
60874;BME280;46715;40.642;-7.920;2023-04-01T12:35:27;96964.47;;;17.29;88.36
60874;BME280;46715;40.642;-7.920;2023-04-01T12:42:19;96953.75;;;16.78;92.87
60874;BME280;46715;40.642;-7.920;2023-04-01T12:52:09;96948.59;;;17.84;85.91
60874;BME280;46715;40.642;-7.920;2023-04-01T13:10:54;96951.28;;;17.01;91.38
60874;BME280;46715;40.642;-7.920;2023-04-01T13:15:42;96937.91;;;17.39;89.45
60874;BME280;46715;40.642;-7.920;2023-04-01T13:20:32;96937.19;;;17.61;87.82
60874;BME280;46715;40.642;-7.920;2023-04-01T13:22:46;96941.22;;;17.31;87.79
60874;BME280;46715;40.642;-7.920;2023-04-01T13:29:21;96933.75;;;16.44;92.83
60874;BME280;46715;40.642;-7.920;2023-04-01T13:34:00;96930.31;;;16.77;95.16
60874;BME280;46715;40.642;-7.920;2023-04-01T13:40:36;96918.84;;;17.00;91.37
60874;BME280;46715;40.642;-7.920;2023-04-01T13:42:47;96915.47;;;17.14;90.70
60874;BME280;46715;40.642;-7.920;2023-04-01T13:45:34;96923.66;;;17.12;91.66
60874;BME280;46715;40.642;-7.920;2023-04-01T13:52:47;96919.94;;;16.99;91.81
60874;BME280;46715;40.642;-7.920;2023-04-01T14:00:03;96904.66;;;16.82;93.61
60874;BME280;46715;40.642;-7.920;2023-04-01T14:16:59;96905.69;;;16.40;98.00
60874;BME280;46715;40.642;-7.920;2023-04-01T14:22:24;96907.56;;;16.20;100.00
60874;BME280;46715;40.642;-7.920;2023-04-01T14:24:36;96905.81;;;16.29;99.16
60874;BME280;46715;40.642;-7.920;2023-04-01T14:29:55;96898.53;;;16.07;100.00
60874;BME280;46715;40.642;-7.920;2023-04-01T14:32:34;96893.25;;;16.26;99.43
60874;BME280;46715;40.642;-7.920;2023-04-01T14:41:20;96882.28;;;16.05;100.00
60874;BME280;46715;40.642;-7.920;2023-04-01T14:44:22;96887.00;;;16.22;100.00
60874;BME280;46715;40.642;-7.920;2023-04-01T14:46:44;96878.75;;;16.29;100.00
60874;BME280;46715;40.642;-7.920;2023-04-01T14:48:59;96871.34;;;16.45;100.00
60874;BME280;46715;40.642;-7.920;2023-04-01T14:51:37;96868.72;;;16.92;99.45
60874;BME280;46715;40.642;-7.920;2023-04-01T14:53:44;96871.25;;;17.11;96.94
60874;BME280;46715;40.642;-7.920;2023-04-01T14:56:01;96883.75;;;17.05;97.84
60874;BME280;46715;40.642;-7.920;2023-04-01T14:58:13;96881.03;;;17.24;96.20
60874;BME280;46715;40.642;-7.920;2023-04-01T15:00:17;96881.78;;;17.25;97.39
60874;BME280;46715;40.642;-7.920;2023-04-01T15:05:14;96859.94;;;17.10;97.11
60874;BME280;46715;40.642;-7.920;2023-04-01T15:19:21;96865.31;;;17.05;98.49
60874;BME280;46715;40.642;-7.920;2023-04-01T15:36:13;96860.00;;;17.33;97.86
60874;BME280;46715;40.642;-7.920;2023-04-01T15:38:49;96862.16;;;17.31;96.89
60874;BME280;46715;40.642;-7.920;2023-04-01T15:45:36;96860.13;;;17.00;100.00
60874;BME280;46715;40.642;-7.920;2023-04-01T15:47:42;96862.06;;;17.08;98.52
60874;BME280;46715;40.642;-7.920;2023-04-01T15:50:12;96867.66;;;17.07;98.58
60874;BME280;46715;40.642;-7.920;2023-04-01T15:52:24;96862.44;;;16.87;100.00
60874;BME280;46715;40.642;-7.920;2023-04-01T16:01:59;96840.50;;;16.64;100.00
60874;BME280;46715;40.642;-7.920;2023-04-01T16:06:49;96844.00;;;16.74;100.00
60874;BME280;46715;40.642;-7.920;2023-04-01T16:20:20;96846.72;;;16.68;100.00
60874;BME280;46715;40.642;-7.920;2023-04-01T16:22:41;96842.91;;;16.47;100.00
60874;BME280;46715;40.642;-7.920;2023-04-01T16:27:18;96842.38;;;16.31;100.00
60874;BME280;46715;40.642;-7.920;2023-04-01T16:29:32;96840.44;;;16.36;100.00
60874;BME280;46715;40.642;-7.920;2023-04-01T16:31:53;96843.28;;;16.40;100.00
60874;BME280;46715;40.642;-7.920;2023-04-01T16:39:25;96833.94;;;16.34;100.00
60874;BME280;46715;40.642;-7.920;2023-04-01T16:41:34;96834.63;;;16.40;100.00
60874;BME280;46715;40.642;-7.920;2023-04-01T16:43:45;96832.47;;;16.56;100.00
60874;BME280;46715;40.642;-7.920;2023-04-01T16:48:18;96841.97;;;16.98;100.00
60874;BME280;46715;40.642;-7.920;2023-04-01T16:53:16;96840.59;;;17.29;100.00
60874;BME280;46715;40.642;-7.920;2023-04-01T16:55:20;96831.69;;;17.38;100.00
60874;BME280;46715;40.642;-7.920;2023-04-01T16:59:35;96835.22;;;17.34;100.00
60874;BME280;46715;40.642;-7.920;2023-04-01T17:02:02;96844.78;;;17.30;100.00
60874;BME280;46715;40.642;-7.920;2023-04-01T17:11:03;96839.84;;;17.14;100.00
60874;BME280;46715;40.642;-7.920;2023-04-01T17:18:13;96830.84;;;17.15;100.00
60874;BME280;46715;40.642;-7.920;2023-04-01T17:22:31;96842.94;;;17.16;100.00
60874;BME280;46715;40.642;-7.920;2023-04-01T17:24:38;96839.94;;;17.09;100.00
60874;BME280;46715;40.642;-7.920;2023-04-01T17:26:46;96829.03;;;17.02;100.00
60874;BME280;46715;40.642;-7.920;2023-04-01T17:28:58;96824.13;;;16.95;100.00
60874;BME280;46715;40.642;-7.920;2023-04-01T17:35:56;96838.00;;;17.01;100.00
60874;BME280;46715;40.642;-7.920;2023-04-01T17:38:21;96834.00;;;17.03;100.00
60874;BME280;46715;40.642;-7.920;2023-04-01T17:43:03;96844.13;;;17.10;100.00
60874;BME280;46715;40.642;-7.920;2023-04-01T17:45:18;96839.63;;;17.11;100.00
60874;BME280;46715;40.642;-7.920;2023-04-01T17:59:37;96851.34;;;17.04;100.00
60874;BME280;46715;40.642;-7.920;2023-04-01T18:04:26;96854.84;;;17.00;100.00
60874;BME280;46715;40.642;-7.920;2023-04-01T18:18:05;96857.75;;;16.84;100.00
60874;BME280;46715;40.642;-7.920;2023-04-01T18:22:34;96859.13;;;16.82;100.00
60874;BME280;46715;40.642;-7.920;2023-04-01T18:25:04;96856.09;;;16.75;100.00
60874;BME280;46715;40.642;-7.920;2023-04-01T18:27:40;96858.69;;;16.47;100.00
60874;BME280;46715;40.642;-7.920;2023-04-01T18:30:13;96857.41;;;16.30;100.00
60874;BME280;46715;40.642;-7.920;2023-04-01T18:36:19;96858.75;;;16.28;100.00